createdAt,value
2022-10-31T00:00:53.043Z,5.82
2022-10-31T00:03:19.431Z,5.85
2022-10-31T00:05:49.249Z,6.88
2022-10-31T00:08:15.863Z,7.72
2022-10-31T00:10:42.901Z,6.95
2022-10-31T00:13:09.606Z,6.40
2022-10-31T00:15:36.586Z,5.72
2022-10-31T00:18:03.761Z,6.15
2022-10-31T00:20:30.088Z,6.55
2022-10-31T00:23:00.023Z,6.88
2022-10-31T00:25:26.501Z,6.78
2022-10-31T00:27:52.790Z,6.25
2022-10-31T00:30:19.324Z,5.70
2022-10-31T00:32:45.578Z,5.80
2022-10-31T00:35:12.051Z,6.32
2022-10-31T00:37:38.337Z,6.30
2022-10-31T00:40:04.848Z,6.35
2022-10-31T00:42:31.096Z,6.70
2022-10-31T00:44:57.382Z,6.50
2022-10-31T00:47:23.758Z,7.20
2022-10-31T00:49:50.002Z,6.07
2022-10-31T00:52:16.310Z,6.32
2022-10-31T00:54:42.583Z,6.85
2022-10-31T00:57:08.834Z,6.20
2022-10-31T00:59:35.107Z,6.35
2022-10-31T01:02:01.632Z,5.90
2022-10-31T01:04:27.990Z,5.43
2022-10-31T01:06:54.240Z,7.18
2022-10-31T01:09:20.490Z,6.35
2022-10-31T01:11:46.847Z,6.30
2022-10-31T01:14:13.119Z,5.43
2022-10-31T01:16:39.354Z,5.60
2022-10-31T01:19:05.633Z,5.88
2022-10-31T01:21:31.910Z,5.60
2022-10-31T01:23:58.212Z,5.10
2022-10-31T01:26:28.618Z,5.95
2022-10-31T01:28:56.057Z,5.88
2022-10-31T01:31:24.048Z,5.88
2022-10-31T01:33:50.307Z,5.75
2022-10-31T01:36:19.470Z,6.45
2022-10-31T01:38:46.617Z,5.15
2022-10-31T01:41:14.208Z,7.07
2022-10-31T01:43:46.494Z,5.78
2022-10-31T01:46:13.325Z,6.63
2022-10-31T01:48:43.099Z,5.93
2022-10-31T01:51:10.486Z,6.47
2022-10-31T01:53:37.023Z,5.55
2022-10-31T01:56:03.385Z,5.55
2022-10-31T01:58:31.852Z,5.03
2022-10-31T02:01:01.914Z,5.88
2022-10-31T02:03:31.995Z,6.10
2022-10-31T02:05:58.675Z,6.57
2022-10-31T02:08:28.726Z,6.45
2022-10-31T02:10:55.454Z,6.03
2022-10-31T02:13:21.901Z,5.78
2022-10-31T02:15:50.786Z,6.10
2022-10-31T02:18:17.299Z,5.85
2022-10-31T02:21:02.406Z,5.00
2022-10-31T02:23:51.699Z,5.43
2022-10-31T02:26:17.958Z,4.65
2022-10-31T02:28:44.197Z,3.88
2022-10-31T02:31:33.749Z,4.57
2022-10-31T02:34:02.094Z,4.82
2022-10-31T02:36:51.080Z,5.13
2022-10-31T02:39:27.919Z,4.25
2022-10-31T02:42:13.209Z,5.70
2022-10-31T02:44:45.323Z,5.55
2022-10-31T02:47:18.017Z,4.63
2022-10-31T02:49:54.718Z,4.28
2022-10-31T02:52:21.852Z,4.70
2022-10-31T02:54:48.894Z,4.57
2022-10-31T02:57:16.444Z,3.72
2022-10-31T02:59:46.768Z,4.38
2022-10-31T03:02:16.262Z,3.50
2022-10-31T03:04:50.362Z,4.03
2022-10-31T03:07:35.127Z,3.15
2022-10-31T03:10:05.364Z,3.10
2022-10-31T03:12:40.244Z,2.55
2022-10-31T03:15:28.402Z,3.28
2022-10-31T03:17:54.681Z,3.15
2022-10-31T03:20:23.381Z,3.25
2022-10-31T03:22:49.745Z,2.95
2022-10-31T03:25:16.705Z,3.45
2022-10-31T03:27:43.973Z,3.88
2022-10-31T03:30:10.793Z,3.63
2022-10-31T03:32:42.741Z,3.38
2022-10-31T03:35:09.617Z,3.72
2022-10-31T03:37:37.364Z,3.28
2022-10-31T03:40:05.890Z,2.95
2022-10-31T03:42:33.753Z,3.78
2022-10-31T03:45:02.489Z,3.45
2022-10-31T03:47:29.270Z,3.30
2022-10-31T03:49:55.754Z,3.22
2022-10-31T03:52:27.244Z,3.58
2022-10-31T03:54:55.960Z,3.70
2022-10-31T03:57:30.767Z,3.38
2022-10-31T04:00:02.218Z,3.92
2022-10-31T04:02:31.379Z,3.60
2022-10-31T04:04:58.156Z,4.80
2022-10-31T04:07:27.811Z,3.28
2022-10-31T04:09:54.602Z,3.55
2022-10-31T04:12:21.631Z,2.90
2022-10-31T04:14:48.802Z,3.25
2022-10-31T04:17:17.012Z,2.88
2022-10-31T04:19:43.369Z,3.10
2022-10-31T04:22:09.692Z,3.85
2022-10-31T04:24:37.318Z,3.60
2022-10-31T04:27:03.581Z,2.60
2022-10-31T04:29:29.879Z,3.13
2022-10-31T04:31:56.154Z,3.65
2022-10-31T04:34:22.410Z,3.92
2022-10-31T04:36:48.661Z,3.40
2022-10-31T04:39:14.936Z,3.58
2022-10-31T04:41:41.386Z,3.28
2022-10-31T04:44:07.620Z,3.25
2022-10-31T04:46:33.895Z,3.20
2022-10-31T04:49:00.135Z,3.40
2022-10-31T04:51:26.465Z,3.22
2022-10-31T04:53:52.714Z,3.08
2022-10-31T04:56:18.985Z,3.65
2022-10-31T04:58:45.252Z,2.95
2022-10-31T05:01:11.766Z,2.50
2022-10-31T05:03:40.160Z,3.35
2022-10-31T05:06:07.179Z,3.22
2022-10-31T05:08:33.438Z,3.05
2022-10-31T05:11:04.723Z,3.50
2022-10-31T05:13:31.457Z,3.30
2022-10-31T05:15:57.725Z,2.80
2022-10-31T05:18:24.126Z,2.58
2022-10-31T05:20:50.381Z,3.58
2022-10-31T05:23:16.677Z,3.15
2022-10-31T05:25:42.968Z,3.28
2022-10-31T05:28:09.276Z,3.15
2022-10-31T05:30:35.847Z,3.03
2022-10-31T05:33:02.282Z,3.05
2022-10-31T05:35:29.735Z,3.47
2022-10-31T05:37:56.479Z,3.53
2022-10-31T05:40:22.866Z,4.43
2022-10-31T05:42:51.409Z,4.00
2022-10-31T05:45:18.211Z,3.70
2022-10-31T05:47:54.603Z,4.38
2022-10-31T05:50:21.412Z,4.40
2022-10-31T05:52:47.761Z,4.72
2022-10-31T05:55:14.162Z,4.00
2022-10-31T05:57:40.426Z,4.82
2022-10-31T06:00:07.082Z,6.85
2022-10-31T06:02:35.337Z,5.38
2022-10-31T06:05:02.169Z,5.72
2022-10-31T06:07:32.526Z,5.75
2022-10-31T06:09:58.779Z,7.72
2022-10-31T06:12:25.032Z,7.63
2022-10-31T06:14:51.305Z,7.25
2022-10-31T06:17:17.543Z,5.63
2022-10-31T06:19:43.878Z,6.75
2022-10-31T06:22:12.346Z,6.32
2022-10-31T06:24:39.200Z,5.38
2022-10-31T06:27:06.171Z,5.38
2022-10-31T06:29:32.882Z,6.05
2022-10-31T06:31:59.121Z,6.32
2022-10-31T06:34:25.381Z,5.15
2022-10-31T06:36:51.629Z,5.15
2022-10-31T06:39:17.886Z,6.22
2022-10-31T06:41:44.147Z,5.70
2022-10-31T06:44:10.473Z,5.47
2022-10-31T06:46:36.749Z,4.70
2022-10-31T06:49:02.987Z,5.28
2022-10-31T06:51:29.247Z,6.63
2022-10-31T06:53:55.496Z,6.55
2022-10-31T06:56:21.777Z,5.00
2022-10-31T06:58:48.102Z,4.90
2022-10-31T07:01:14.471Z,4.72
2022-10-31T07:03:40.846Z,5.20
2022-10-31T07:06:07.141Z,5.22
2022-10-31T07:08:33.433Z,5.15
2022-10-31T07:10:59.697Z,7.20
2022-10-31T07:13:26.602Z,6.72
2022-10-31T07:15:55.134Z,6.25
2022-10-31T07:18:22.019Z,8.40
2022-10-31T07:20:48.792Z,9.75
2022-10-31T07:23:15.050Z,9.15
2022-10-31T07:25:41.801Z,7.28
2022-10-31T07:28:08.460Z,7.88
2022-10-31T07:30:34.819Z,5.93
2022-10-31T07:33:01.065Z,6.93
2022-10-31T07:35:28.725Z,6.60
2022-10-31T07:37:55.702Z,7.38
2022-10-31T07:40:22.662Z,8.80
2022-10-31T07:42:50.012Z,9.30
2022-10-31T07:45:18.266Z,9.52
2022-10-31T07:47:49.137Z,8.27
2022-10-31T07:50:16.672Z,9.20
2022-10-31T07:52:42.908Z,7.93
2022-10-31T07:55:09.481Z,9.52
2022-10-31T07:57:37.498Z,9.48
2022-10-31T08:00:05.031Z,9.75
2022-10-31T08:02:31.280Z,10.18
2022-10-31T08:05:01.113Z,11.02
2022-10-31T08:07:28.282Z,9.18
2022-10-31T08:09:54.906Z,8.38
2022-10-31T08:12:21.320Z,8.85
2022-10-31T08:14:47.622Z,10.00
2022-10-31T08:17:14.090Z,9.38
2022-10-31T08:19:40.370Z,11.95
2022-10-31T08:22:06.618Z,13.73
2022-10-31T08:24:33.410Z,12.90
2022-10-31T08:26:59.687Z,14.27
2022-10-31T08:29:25.936Z,14.02
2022-10-31T08:31:52.197Z,15.63
2022-10-31T08:34:18.448Z,15.43
2022-10-31T08:36:46.943Z,14.73
2022-10-31T08:39:13.196Z,15.00
2022-10-31T08:41:39.473Z,16.50
2022-10-31T08:44:05.721Z,15.60
2022-10-31T08:46:32.797Z,18.23
2022-10-31T08:48:59.046Z,19.08
2022-10-31T08:51:25.330Z,18.75
2022-10-31T08:53:51.723Z,18.92
2022-10-31T08:56:18.048Z,19.10
2022-10-31T08:58:44.326Z,18.65
2022-10-31T09:01:10.705Z,20.60
2022-10-31T09:03:37.137Z,19.98
2022-10-31T09:06:04.085Z,21.52
2022-10-31T09:08:31.157Z,20.58
2022-10-31T09:10:58.159Z,21.25
2022-10-31T09:13:28.014Z,22.13
2022-10-31T09:15:54.604Z,20.83
2022-10-31T09:18:22.498Z,20.08
2022-10-31T09:20:49.258Z,23.33
2022-10-31T09:23:19.833Z,22.15
2022-10-31T09:25:50.425Z,21.27
2022-10-31T09:28:18.936Z,21.50
2022-10-31T09:30:46.909Z,22.80
2022-10-31T09:33:13.829Z,22.48
2022-10-31T09:35:40.740Z,24.35
2022-10-31T09:38:09.106Z,22.98
2022-10-31T09:40:37.698Z,24.40
2022-10-31T09:43:25.063Z,23.92
2022-10-31T09:46:02.876Z,22.50
2022-10-31T09:48:31.890Z,23.02
2022-10-31T09:51:12.879Z,22.67
2022-10-31T09:53:51.217Z,21.63
2022-10-31T09:56:19.877Z,23.15
2022-10-31T09:58:48.281Z,21.92
2022-10-31T10:01:21.009Z,22.15
2022-10-31T10:03:51.073Z,21.02
2022-10-31T10:06:23.105Z,21.50
2022-10-31T10:08:49.578Z,21.02
2022-10-31T10:11:22.049Z,20.48
2022-10-31T10:14:08.940Z,19.92
2022-10-31T10:16:40.974Z,21.52
2022-10-31T10:19:21.471Z,21.50
2022-10-31T10:21:47.753Z,22.10
2022-10-31T10:24:28.675Z,23.80
2022-10-31T10:27:00.546Z,21.05
2022-10-31T10:29:32.277Z,24.27
2022-10-31T10:32:01.037Z,22.95
2022-10-31T10:34:33.178Z,24.25
2022-10-31T10:37:03.204Z,22.63
2022-10-31T10:39:32.356Z,22.10
2022-10-31T10:42:18.192Z,22.67
2022-10-31T10:45:05.116Z,22.63
2022-10-31T10:47:52.410Z,21.67
2022-10-31T10:50:20.686Z,22.50
2022-10-31T10:53:07.755Z,24.17
2022-10-31T10:55:38.266Z,22.15
2022-10-31T10:58:07.192Z,23.90
2022-10-31T11:00:36.133Z,23.00
2022-10-31T11:03:03.306Z,24.73
2022-10-31T11:05:48.420Z,23.75
2022-10-31T11:08:27.532Z,22.23
2022-10-31T11:11:14.701Z,22.15
2022-10-31T11:13:42.020Z,22.73
2022-10-31T11:16:10.615Z,22.38
2022-10-31T11:18:46.513Z,23.70
2022-10-31T11:21:25.294Z,22.77
2022-10-31T11:23:51.547Z,22.58
2022-10-31T11:26:21.210Z,24.75
2022-10-31T11:28:57.368Z,23.10
2022-10-31T11:31:24.018Z,25.40
2022-10-31T11:33:53.253Z,23.48
2022-10-31T11:36:22.526Z,24.05
2022-10-31T11:38:49.425Z,23.20
2022-10-31T11:41:18.051Z,26.52
2022-10-31T11:43:50.714Z,24.45
2022-10-31T11:46:21.995Z,24.45
2022-10-31T11:48:50.211Z,23.98
2022-10-31T11:51:21.769Z,23.92
2022-10-31T11:53:56.727Z,24.83
2022-10-31T11:56:27.071Z,24.50
2022-10-31T11:58:57.533Z,23.42
2022-10-31T12:01:28.195Z,26.13
2022-10-31T12:04:10.602Z,26.38
2022-10-31T12:06:37.940Z,27.48
2022-10-31T12:09:19.261Z,24.02
2022-10-31T12:11:51.355Z,26.05
2022-10-31T12:14:33.614Z,25.10
2022-10-31T12:17:09.340Z,25.63
2022-10-31T12:19:35.594Z,25.70
2022-10-31T12:22:14.671Z,25.67
2022-10-31T12:24:46.175Z,24.65
2022-10-31T12:27:30.758Z,23.88
2022-10-31T12:29:56.993Z,24.73
2022-10-31T12:32:23.275Z,23.40
2022-10-31T12:35:08.402Z,24.05
2022-10-31T12:37:34.669Z,23.80
2022-10-31T12:40:04.026Z,24.17
2022-10-31T12:42:36.642Z,21.58
2022-10-31T12:45:15.162Z,23.15
2022-10-31T12:47:53.322Z,23.38
2022-10-31T12:50:32.645Z,23.17
2022-10-31T12:53:08.022Z,21.55
2022-10-31T12:55:53.858Z,22.55
2022-10-31T12:58:25.313Z,22.33
2022-10-31T13:00:55.211Z,21.73
2022-10-31T13:03:28.089Z,21.50
2022-10-31T13:05:57.574Z,22.58
2022-10-31T13:08:34.249Z,21.58
2022-10-31T13:11:15.532Z,21.10
2022-10-31T13:13:41.785Z,21.73
2022-10-31T13:16:18.165Z,21.02
2022-10-31T13:18:49.605Z,20.48
2022-10-31T13:21:21.917Z,20.55
2022-10-31T13:23:51.712Z,20.42
2022-10-31T13:26:32.917Z,21.05
2022-10-31T13:29:06.490Z,21.10
2022-10-31T13:31:33.818Z,20.45
2022-10-31T13:34:04.306Z,21.50
2022-10-31T13:36:59.880Z,20.77
2022-10-31T13:39:26.117Z,20.30
2022-10-31T13:41:55.357Z,20.25
2022-10-31T13:44:24.880Z,18.15
2022-10-31T13:46:51.661Z,17.25
2022-10-31T13:49:30.090Z,18.65
2022-10-31T13:52:11.340Z,19.30
2022-10-31T13:54:56.651Z,17.75
2022-10-31T13:57:43.851Z,18.40
2022-10-31T14:00:16.195Z,20.92
2022-10-31T14:02:47.475Z,15.63
2022-10-31T14:05:27.185Z,14.88
2022-10-31T14:07:54.161Z,12.77
2022-10-31T14:10:20.489Z,9.68
2022-10-31T14:12:48.242Z,9.55
2022-10-31T14:15:17.595Z,9.63
2022-10-31T14:17:51.930Z,9.93
2022-10-31T14:20:21.373Z,9.90
2022-10-31T14:22:47.729Z,9.90
2022-10-31T14:25:27.006Z,11.32
2022-10-31T14:27:53.570Z,15.75
2022-10-31T14:30:23.185Z,13.60
2022-10-31T14:32:58.166Z,15.27
2022-10-31T14:35:27.378Z,14.30
2022-10-31T14:38:17.009Z,13.15
2022-10-31T14:43:24.186Z,12.50
2022-10-31T14:45:58.158Z,12.82
2022-10-31T14:48:43.005Z,11.75
2022-10-31T14:51:22.890Z,12.23
2022-10-31T14:53:50.565Z,13.05
2022-10-31T14:56:30.641Z,12.20
2022-10-31T14:58:58.897Z,12.05
2022-10-31T15:01:29.524Z,11.85
2022-10-31T15:04:24.191Z,11.32
2022-10-31T15:06:46.729Z,13.23
2022-10-31T15:09:46.417Z,11.18
2022-10-31T15:12:32.411Z,11.52
2022-10-31T15:14:59.700Z,12.25
2022-10-31T15:17:26.682Z,11.52
2022-10-31T15:19:53.647Z,11.50
2022-10-31T15:22:21.599Z,11.60
2022-10-31T15:24:49.175Z,12.90
2022-10-31T15:27:18.466Z,11.13
2022-10-31T15:29:48.593Z,11.20
2022-10-31T15:32:24.283Z,12.43
2022-10-31T15:34:52.022Z,12.48
2022-10-31T15:37:19.470Z,12.57
2022-10-31T15:39:46.431Z,11.48
2022-10-31T15:42:20.124Z,11.65
2022-10-31T15:44:48.168Z,11.65
2022-10-31T15:47:17.730Z,11.07
2022-10-31T15:49:49.218Z,11.70
2022-10-31T15:52:18.259Z,10.98
2022-10-31T15:54:49.629Z,11.05
2022-10-31T15:57:16.245Z,10.65
2022-10-31T15:59:49.397Z,13.07
2022-10-31T16:02:18.855Z,10.02
2022-10-31T16:04:49.635Z,11.95
2022-10-31T16:07:22.712Z,11.40
2022-10-31T16:09:52.775Z,10.90
2022-10-31T16:12:22.413Z,11.85
2022-10-31T16:14:49.600Z,11.07
2022-10-31T16:17:17.509Z,11.57
2022-10-31T16:19:48.600Z,10.85
2022-10-31T16:22:20.099Z,11.77
2022-10-31T16:24:49.181Z,11.35
2022-10-31T16:27:29.266Z,12.02
2022-10-31T16:29:59.648Z,12.38
2022-10-31T16:32:25.875Z,9.93
2022-10-31T16:34:59.188Z,7.97
2022-10-31T16:37:25.436Z,9.35
2022-10-31T16:39:51.721Z,9.23
2022-10-31T16:42:18.133Z,9.40
2022-10-31T16:44:45.092Z,9.13
2022-10-31T16:47:16.155Z,9.23
2022-10-31T16:49:42.891Z,8.77
2022-10-31T16:52:09.240Z,9.43
2022-10-31T16:54:35.686Z,9.32
2022-10-31T16:57:03.226Z,8.75
2022-10-31T16:59:30.390Z,9.52
2022-10-31T17:01:56.744Z,9.65
2022-10-31T17:04:23.176Z,7.90
2022-10-31T17:06:49.501Z,9.13
2022-10-31T17:09:16.011Z,9.60
2022-10-31T17:11:49.445Z,9.75
2022-10-31T17:14:16.858Z,8.93
2022-10-31T17:16:43.150Z,8.77
2022-10-31T17:19:12.732Z,8.38
2022-10-31T17:21:39.352Z,8.70
2022-10-31T17:24:05.811Z,8.80
2022-10-31T17:26:32.177Z,8.05
2022-10-31T17:29:00.042Z,8.65
2022-10-31T17:31:28.285Z,8.80
2022-10-31T17:34:00.116Z,7.85
2022-10-31T17:36:28.637Z,9.10
2022-10-31T17:38:54.905Z,8.93
2022-10-31T17:41:21.181Z,7.97
2022-10-31T17:43:47.472Z,10.27
2022-10-31T17:46:13.823Z,8.02
2022-10-31T17:48:40.162Z,8.57
2022-10-31T17:51:07.005Z,7.97
2022-10-31T17:53:34.446Z,7.07
2022-10-31T17:56:01.807Z,8.05
2022-10-31T17:58:28.398Z,7.78
2022-10-31T18:00:54.692Z,8.30
2022-10-31T18:03:21.001Z,7.88
2022-10-31T18:05:54.549Z,8.23
2022-10-31T18:08:24.045Z,7.55
2022-10-31T18:10:50.365Z,7.60
2022-10-31T18:13:16.649Z,7.32
2022-10-31T18:15:42.912Z,7.50
2022-10-31T18:18:09.306Z,7.05
2022-10-31T18:20:35.555Z,7.70
2022-10-31T18:23:01.821Z,8.02
2022-10-31T18:25:28.126Z,6.75
2022-10-31T18:27:54.392Z,7.18
2022-10-31T18:30:20.727Z,7.03
2022-10-31T18:32:49.117Z,6.93
2022-10-31T18:35:15.362Z,6.53
2022-10-31T18:37:41.605Z,6.47
2022-10-31T18:40:08.150Z,6.47
2022-10-31T18:42:34.410Z,7.00
2022-10-31T18:45:11.193Z,6.82
2022-10-31T18:47:43.386Z,5.97
2022-10-31T18:50:10.175Z,6.72
2022-10-31T18:52:36.490Z,5.97
2022-10-31T18:55:02.786Z,7.15
2022-10-31T18:57:29.837Z,6.70
2022-10-31T18:59:56.168Z,6.38
2022-10-31T19:02:22.604Z,6.45
2022-10-31T19:04:49.009Z,6.05
2022-10-31T19:07:15.282Z,5.50
2022-10-31T19:09:41.545Z,5.97
2022-10-31T19:12:10.501Z,5.60
2022-10-31T19:14:36.793Z,5.75
2022-10-31T19:17:03.062Z,5.63
2022-10-31T19:19:29.544Z,5.40
2022-10-31T19:21:56.723Z,5.47
2022-10-31T19:24:23.100Z,5.45
2022-10-31T19:26:49.522Z,5.95
2022-10-31T19:29:16.543Z,6.60
2022-10-31T19:31:42.867Z,6.00
2022-10-31T19:34:10.627Z,5.85
2022-10-31T19:36:36.878Z,5.65
2022-10-31T19:39:03.288Z,4.93
2022-10-31T19:41:29.994Z,5.95
2022-10-31T19:43:58.574Z,6.22
2022-10-31T19:46:48.098Z,5.95
2022-10-31T19:49:11.750Z,5.20
2022-10-31T19:51:38.055Z,5.57
2022-10-31T19:54:04.482Z,5.90
2022-10-31T19:56:30.739Z,5.50
2022-10-31T19:58:59.575Z,6.07
2022-10-31T20:01:25.991Z,6.35
2022-10-31T20:03:52.333Z,6.07
2022-10-31T20:06:21.576Z,6.10
2022-10-31T20:08:47.837Z,6.28
2022-10-31T20:11:14.163Z,5.97
2022-10-31T20:13:40.518Z,7.47
2022-10-31T20:16:08.439Z,5.85
2022-10-31T20:18:35.798Z,6.47
2022-10-31T20:21:06.602Z,6.25
2022-10-31T20:23:33.546Z,6.32
2022-10-31T20:25:59.885Z,5.57
2022-10-31T20:28:26.465Z,6.03
2022-10-31T20:30:52.902Z,6.90
2022-10-31T20:33:19.299Z,5.82
2022-10-31T20:35:45.797Z,5.60
2022-10-31T20:38:12.193Z,5.90
2022-10-31T20:40:38.481Z,7.45
2022-10-31T20:43:04.906Z,7.38
2022-10-31T20:45:31.725Z,5.22
2022-10-31T20:47:58.570Z,5.60
2022-10-31T20:50:25.604Z,5.68
2022-10-31T20:52:52.064Z,5.38
2022-10-31T20:55:18.460Z,5.22
2022-10-31T20:57:44.969Z,5.72
2022-10-31T21:00:11.888Z,6.28
2022-10-31T21:02:41.941Z,5.28
2022-10-31T21:05:12.118Z,5.47
2022-10-31T21:07:38.854Z,5.82
2022-10-31T21:10:14.614Z,4.32
2022-10-31T21:12:41.663Z,5.00
2022-10-31T21:15:08.344Z,4.97
2022-10-31T21:17:34.603Z,4.75
2022-10-31T21:20:00.842Z,4.95
2022-10-31T21:22:28.744Z,6.15
2022-10-31T21:24:55.003Z,4.63
2022-10-31T21:27:21.281Z,5.43
2022-10-31T21:29:47.521Z,5.72
2022-10-31T21:32:13.801Z,4.78
2022-10-31T21:34:40.052Z,4.57
2022-10-31T21:37:06.303Z,5.20
2022-10-31T21:39:32.598Z,5.85
2022-10-31T21:41:58.847Z,5.38
2022-10-31T21:44:25.133Z,4.95
2022-10-31T21:46:51.399Z,5.18
2022-10-31T21:49:17.647Z,5.40
2022-10-31T21:51:44.111Z,5.40
2022-10-31T21:54:27.163Z,5.65
2022-10-31T21:56:54.213Z,5.30
2022-10-31T21:59:20.901Z,5.68
2022-10-31T22:01:47.289Z,5.22
2022-10-31T22:04:13.656Z,5.63
2022-10-31T22:06:40.017Z,6.25
2022-10-31T22:09:07.365Z,6.07
2022-10-31T22:11:34.435Z,5.38
2022-10-31T22:14:01.321Z,4.57
2022-10-31T22:16:29.046Z,4.57
2022-10-31T22:18:56.171Z,4.43
2022-10-31T22:21:24.110Z,4.75
2022-10-31T22:23:53.383Z,3.95
2022-10-31T22:26:19.842Z,4.13
2022-10-31T22:28:47.337Z,4.43
2022-10-31T22:31:14.493Z,3.90
2022-10-31T22:33:40.993Z,4.00
2022-10-31T22:36:08.676Z,5.07
2022-10-31T22:38:39.762Z,4.85
2022-10-31T22:41:16.633Z,3.95
2022-10-31T22:43:43.283Z,4.43
2022-10-31T22:46:11.597Z,3.75
2022-10-31T22:48:40.497Z,4.63
2022-10-31T22:51:14.023Z,4.18
2022-10-31T22:53:40.520Z,4.38
2022-10-31T22:56:07.695Z,4.63
2022-10-31T22:58:34.330Z,5.00
2022-10-31T23:01:01.098Z,3.85
2022-10-31T23:03:27.452Z,4.10
2022-10-31T23:05:54.469Z,4.15
2022-10-31T23:08:20.737Z,4.53
2022-10-31T23:10:47.013Z,3.83
2022-10-31T23:13:32.098Z,4.40
2022-10-31T23:15:58.353Z,4.53
2022-10-31T23:18:48.479Z,5.35
2022-10-31T23:21:30.833Z,4.82
2022-10-31T23:23:57.781Z,4.53
2022-10-31T23:26:43.069Z,4.53
2022-10-31T23:29:10.142Z,4.93
2022-10-31T23:31:36.406Z,4.53
2022-10-31T23:34:02.691Z,4.75
2022-10-31T23:36:28.952Z,4.28
2022-10-31T23:38:55.209Z,4.43
2022-10-31T23:41:23.380Z,4.93
2022-10-31T23:43:49.640Z,3.92
2022-10-31T23:46:15.938Z,4.53
2022-10-31T23:48:42.181Z,4.40
2022-10-31T23:51:08.433Z,4.45
2022-10-31T23:56:06.124Z,4.60
2022-10-31T23:58:32.406Z,4.38
